Marco Polo — C6JZ7 — position and weather

sailwx.info

Track history (hours):
 
Tides and Currents Weather Stations Pressure Air Temp Water Temp Dewpoint Dewpoint Depression Visibility Wind Speed Wind Dir Waves Ship Positions

Marco Polo

Operator: Orient Lines

Last reported at 2015-May-27 18:14 UTC. Time now 2015-May-30 02:35 UTC.
Position N 62°13' W 006°20'.

Type: Ship. MMSI: 308691456.

Date/timePositionNaut miles runAvg speedWind from/ knotsBaromVisibWave heightAir tempDewpointWater temp
2015-May-27 18:14N 62°13' W 006°20'1216.7
2015-May-27 17:33N 62°04' W 006°35'6 5.2
2015-May-27 16:23N 62°00' W 006°46'0 0.0
2015-May-27 14:25N 62°00' W 006°46'0 0.0
2015-May-27 11:32N 62°00' W 006°46'0 0.0
2015-May-27 09:17N 62°00' W 006°46'0 0.0
2015-May-27 08:33N 62°00' W 006°46'89 9.6
2015-May-26 23:17N 60°57' W 004°36'1013.0
2015-May-26 22:32N 60°49' W 004°22'1312.5
2015-May-26 21:32N 60°40' W 004°04'35013.8
2015-May-25 20:15N 55°01' W 001°22'1 0.1
2015-May-25 10:33N 55°01' W 001°20'1414.4
2015-May-25 09:33N 54°51' W 001°02'1616.2
2015-May-25 08:33N 54°39' W 000°43'1615.7
2015-May-25 07:33N 54°28' W 000°24'1615.8
2015-May-25 06:33N 54°17' W 000°05'1615.9
2015-May-25 05:33N 54°05' E 000°13'1615.3
2015-May-25 04:33N 53°54' E 000°32'5015.2
2015-May-25 01:15N 53°13' E 001°20'1013.7
2015-May-25 00:33N 53°06' E 001°32'1313.4
2015-May-24 23:34N 52°59' E 001°50'1313.4
2015-May-24 22:33N 52°51' E 002°08'1414.2
2015-May-24 21:33N 52°37' E 002°09'1616.0
2015-May-24 20:33N 52°22' E 002°01'1716.6
2015-May-24 19:33N 52°06' E 001°53'1716.8
2015-May-24 18:33N 51°50' E 001°46'1414.0
2015-May-24 17:34N 51°42' E 001°28'1916.9
2015-May-24 16:27N 51°31' E 001°03'1314.5
2015-May-24 15:33N 51°30' E 000°43'1010.4
2015-May-24 14:33N 51°27' E 000°26'3 2.8
2015-May-24 13:34N 51°27' E 000°22'0 0.0
2015-May-24 12:34N 51°27' E 000°22'0 0.0
2015-May-24 11:32N 51°27' E 000°22'0 0.0
2015-May-24 10:33N 51°27' E 000°22'0 0.0
2015-May-24 09:33N 51°27' E 000°22'0 0.0
2015-May-24 08:31N 51°27' E 000°22'0 0.0
2015-May-24 07:33N 51°27' E 000°22'3 2.9
2015-May-24 06:34N 51°27' E 000°26'1010.1
2015-May-24 05:32N 51°30' E 000°43'1212.5
2015-May-24 04:33N 51°30' E 001°02'1514.9
2015-May-24 03:33N 51°39' E 001°22'1615.7
2015-May-24 02:33N 51°51' E 001°39'1111.0
2015-May-24 01:33N 51°51' E 001°57'13714.9
2015-May-23 16:20N 53°27' E 004°38'1417.6
2015-May-23 15:34N 53°33' E 004°58'1817.7
2015-May-23 14:33N 53°39' E 005°26'1717.1
2015-May-23 13:32N 53°45' E 005°54'5215.7
2015-May-23 10:12N 53°58' E 007°20'1016.2
2015-May-23 09:34N 54°01' E 007°37'1717.1
2015-May-23 08:33N 54°01' E 008°06'1717.2
2015-May-23 07:33N 53°58' E 008°35'1616.1
2015-May-23 06:33N 53°51' E 008°60'32 5.3
2015-May-23 00:33N 54°15' E 009°37'7 7.1
2015-May-22 23:34N 54°20' E 009°44'7 7.1
2015-May-22 22:34N 54°20' E 009°56'7 6.7
2015-May-22 21:34N 54°22' E 010°08'1 1.5
2015-May-22 20:34N 54°22' E 010°10'1010.3
2015-May-22 19:33N 54°31' E 010°20'2315.7
2015-May-22 18:07N 54°36' E 010°58'1116.9
2015-May-22 17:28N 54°35' E 011°17'1617.2
2015-May-22 16:33N 54°28' E 011°41'9315.2
2015-May-22 10:29N 55°07' E 014°07'1516.2
2015-May-22 09:33N 55°18' E 014°24'1616.4
2015-May-22 08:33N 55°29' E 014°45'1716.6
2015-May-22 07:33N 55°38' E 015°11'12815.7
2015-May-21 23:21N 57°18' E 017°35'179 6.7
2015-May-20 20:33N 59°27' E 021°33'8614.2
2015-May-20 14:33N 59°47' E 024°17'78 5.2
2015-May-19 23:34N 60°00' E 026°50'9214.8
2015-May-19 17:21N 59°57' E 029°53'810.5
2015-May-19 16:33N 59°57' E 030°10'1 0.6
2015-May-19 15:31N 59°57' E 030°11'0 0.0
2015-May-19 14:31N 59°57' E 030°11'0 0.0
2015-May-19 13:33N 59°57' E 030°11'0 0.0
2015-May-19 12:30N 59°57' E 030°11'0 0.0
2015-May-19 11:33N 59°57' E 030°11'0 0.0
2015-May-19 10:32N 59°57' E 030°11'0 0.0
2015-May-19 09:32N 59°57' E 030°11'0 0.0
2015-May-19 08:31N 59°57' E 030°11'0 0.0
2015-May-19 07:31N 59°57' E 030°11'0 0.0
2015-May-19 06:30N 59°57' E 030°11'0 0.0
2015-May-19 05:30N 59°57' E 030°11'0 0.0
2015-May-19 04:32N 59°57' E 030°11'0 0.0
2015-May-19 03:32N 59°57' E 030°11'0 0.0
2015-May-19 02:32N 59°57' E 030°11'0 0.0
2015-May-19 01:31N 59°57' E 030°11'0 0.0
2015-May-19 00:31N 59°57' E 030°11'0 0.0
2015-May-18 23:33N 59°57' E 030°11'0 0.0
2015-May-18 22:33N 59°57' E 030°11'0 0.0
2015-May-18 21:32N 59°57' E 030°11'0 0.0
2015-May-18 20:32N 59°57' E 030°11'0 0.0
2015-May-18 19:32N 59°57' E 030°11'0 0.0
2015-May-18 18:31N 59°57' E 030°11'0 0.0
2015-May-18 17:31N 59°57' E 030°11'0 0.0
2015-May-18 16:33N 59°57' E 030°11'0 0.0
2015-May-18 15:27N 59°57' E 030°11'0 0.0
2015-May-18 14:32N 59°57' E 030°11'0 0.0
2015-May-18 13:32N 59°57' E 030°11'0 0.0
2015-May-18 12:32N 59°57' E 030°11'0 0.0
2015-May-18 11:31N 59°57' E 030°11'0 0.0
2015-May-18 10:31N 59°57' E 030°11'0 0.0
2015-May-18 09:30N 59°57' E 030°11'0 0.0
2015-May-18 08:30N 59°57' E 030°11'0 0.0
2015-May-18 07:29N 59°57' E 030°11'0 0.0
2015-May-18 06:32N 59°57' E 030°11'0 0.0
2015-May-18 05:31N 59°57' E 030°11'0 0.0
2015-May-18 04:31N 59°57' E 030°11'0 0.0
2015-May-18 03:33N 59°57' E 030°11'6 6.2
2015-May-18 02:33N 59°55' E 029°59'9012.4
2015-May-17 19:17N 59°58' E 027°00'1014.3
2015-May-17 18:34N 59°59' E 026°40'  
Track history (hours):
 
Tides and Currents Weather Stations Pressure Air Temp Water Temp Dewpoint Dewpoint Depression Visibility Wind Speed Wind Dir Waves Ship Positions

Marco Polo

Operator: Orient Lines

Last reported at 2015-May-27 18:14 UTC. Time now 2015-May-30 02:35 UTC.
Position N 62°13' W 006°20'.

Type: Ship. MMSI: 308691456.

Date/timePositionNaut miles runAvg speedWind from/ knotsBaromVisibWave heightAir tempDewpointWater temp
2015-May-27 18:14N 62°13' W 006°20'1216.7
2015-May-27 17:33N 62°04' W 006°35'6 5.2
2015-May-27 16:23N 62°00' W 006°46'0 0.0
2015-May-27 14:25N 62°00' W 006°46'0 0.0
2015-May-27 11:32N 62°00' W 006°46'0 0.0
2015-May-27 09:17N 62°00' W 006°46'0 0.0
2015-May-27 08:33N 62°00' W 006°46'89 9.6
2015-May-26 23:17N 60°57' W 004°36'1013.0
2015-May-26 22:32N 60°49' W 004°22'1312.5
2015-May-26 21:32N 60°40' W 004°04'35013.8
2015-May-25 20:15N 55°01' W 001°22'1 0.1
2015-May-25 10:33N 55°01' W 001°20'1414.4
2015-May-25 09:33N 54°51' W 001°02'1616.2
2015-May-25 08:33N 54°39' W 000°43'1615.7
2015-May-25 07:33N 54°28' W 000°24'1615.8
2015-May-25 06:33N 54°17' W 000°05'1615.9
2015-May-25 05:33N 54°05' E 000°13'1615.3
2015-May-25 04:33N 53°54' E 000°32'5015.2
2015-May-25 01:15N 53°13' E 001°20'1013.7
2015-May-25 00:33N 53°06' E 001°32'1313.4
2015-May-24 23:34N 52°59' E 001°50'1313.4
2015-May-24 22:33N 52°51' E 002°08'1414.2
2015-May-24 21:33N 52°37' E 002°09'1616.0
2015-May-24 20:33N 52°22' E 002°01'1716.6
2015-May-24 19:33N 52°06' E 001°53'1716.8
2015-May-24 18:33N 51°50' E 001°46'1414.0
2015-May-24 17:34N 51°42' E 001°28'1916.9
2015-May-24 16:27N 51°31' E 001°03'1314.5
2015-May-24 15:33N 51°30' E 000°43'1010.4
2015-May-24 14:33N 51°27' E 000°26'3 2.8
2015-May-24 13:34N 51°27' E 000°22'0 0.0
2015-May-24 12:34N 51°27' E 000°22'0 0.0
2015-May-24 11:32N 51°27' E 000°22'0 0.0
2015-May-24 10:33N 51°27' E 000°22'0 0.0
2015-May-24 09:33N 51°27' E 000°22'0 0.0
2015-May-24 08:31N 51°27' E 000°22'0 0.0
2015-May-24 07:33N 51°27' E 000°22'3 2.9
2015-May-24 06:34N 51°27' E 000°26'1010.1
2015-May-24 05:32N 51°30' E 000°43'1212.5
2015-May-24 04:33N 51°30' E 001°02'1514.9
2015-May-24 03:33N 51°39' E 001°22'1615.7
2015-May-24 02:33N 51°51' E 001°39'1111.0
2015-May-24 01:33N 51°51' E 001°57'13714.9
2015-May-23 16:20N 53°27' E 004°38'1417.6
2015-May-23 15:34N 53°33' E 004°58'1817.7
2015-May-23 14:33N 53°39' E 005°26'1717.1
2015-May-23 13:32N 53°45' E 005°54'5215.7
2015-May-23 10:12N 53°58' E 007°20'1016.2
2015-May-23 09:34N 54°01' E 007°37'1717.1
2015-May-23 08:33N 54°01' E 008°06'1717.2
2015-May-23 07:33N 53°58' E 008°35'1616.1
2015-May-23 06:33N 53°51' E 008°60'32 5.3
2015-May-23 00:33N 54°15' E 009°37'7 7.1
2015-May-22 23:34N 54°20' E 009°44'7 7.1
2015-May-22 22:34N 54°20' E 009°56'7 6.7
2015-May-22 21:34N 54°22' E 010°08'1 1.5
2015-May-22 20:34N 54°22' E 010°10'1010.3
2015-May-22 19:33N 54°31' E 010°20'2315.7
2015-May-22 18:07N 54°36' E 010°58'1116.9
2015-May-22 17:28N 54°35' E 011°17'1617.2
2015-May-22 16:33N 54°28' E 011°41'9315.2
2015-May-22 10:29N 55°07' E 014°07'1516.2
2015-May-22 09:33N 55°18' E 014°24'1616.4
2015-May-22 08:33N 55°29' E 014°45'1716.6
2015-May-22 07:33N 55°38' E 015°11'12815.7
2015-May-21 23:21N 57°18' E 017°35'179 6.7
2015-May-20 20:33N 59°27' E 021°33'8614.2
2015-May-20 14:33N 59°47' E 024°17'78 5.2
2015-May-19 23:34N 60°00' E 026°50'9214.8
2015-May-19 17:21N 59°57' E 029°53'810.5
2015-May-19 16:33N 59°57' E 030°10'1 0.6
2015-May-19 15:31N 59°57' E 030°11'0 0.0
2015-May-19 14:31N 59°57' E 030°11'0 0.0
2015-May-19 13:33N 59°57' E 030°11'0 0.0
2015-May-19 12:30N 59°57' E 030°11'0 0.0
2015-May-19 11:33N 59°57' E 030°11'0 0.0
2015-May-19 10:32N 59°57' E 030°11'0 0.0
2015-May-19 09:32N 59°57' E 030°11'0 0.0
2015-May-19 08:31N 59°57' E 030°11'0 0.0
2015-May-19 07:31N 59°57' E 030°11'0 0.0
2015-May-19 06:30N 59°57' E 030°11'0 0.0
2015-May-19 05:30N 59°57' E 030°11'0 0.0
2015-May-19 04:32N 59°57' E 030°11'0 0.0
2015-May-19 03:32N 59°57' E 030°11'0 0.0
2015-May-19 02:32N 59°57' E 030°11'0 0.0
2015-May-19 01:31N 59°57' E 030°11'0 0.0
2015-May-19 00:31N 59°57' E 030°11'0 0.0
2015-May-18 23:33N 59°57' E 030°11'0 0.0
2015-May-18 22:33N 59°57' E 030°11'0 0.0
2015-May-18 21:32N 59°57' E 030°11'0 0.0
2015-May-18 20:32N 59°57' E 030°11'0 0.0
2015-May-18 19:32N 59°57' E 030°11'0 0.0
2015-May-18 18:31N 59°57' E 030°11'0 0.0
2015-May-18 17:31N 59°57' E 030°11'0 0.0
2015-May-18 16:33N 59°57' E 030°11'0 0.0
2015-May-18 15:27N 59°57' E 030°11'0 0.0
2015-May-18 14:32N 59°57' E 030°11'0 0.0
2015-May-18 13:32N 59°57' E 030°11'0 0.0
2015-May-18 12:32N 59°57' E 030°11'0 0.0
2015-May-18 11:31N 59°57' E 030°11'0 0.0
2015-May-18 10:31N 59°57' E 030°11'0 0.0
2015-May-18 09:30N 59°57' E 030°11'0 0.0
2015-May-18 08:30N 59°57' E 030°11'0 0.0
2015-May-18 07:29N 59°57' E 030°11'0 0.0
2015-May-18 06:32N 59°57' E 030°11'0 0.0
2015-May-18 05:31N 59°57' E 030°11'0 0.0
2015-May-18 04:31N 59°57' E 030°11'0 0.0
2015-May-18 03:33N 59°57' E 030°11'6 6.2
2015-May-18 02:33N 59°55' E 029°59'9012.4
2015-May-17 19:17N 59°58' E 027°00'1014.3
2015-May-17 18:34N 59°59' E 026°40'  

Dump ship's entire track history